Pagina principale
METAR-TAF:

METAR-TAF

Aeroporti :

Aeroporto Internazionale di Chuuk

Weno, Micronesia

latitudine: 07-28N, longitudine: 151-51E, altezza: 3 m

Osservazione

Il bollettino è stato emesso 51 minuti fa, alle 04:53 UTC
Vento 5 kt da direzioni variabili
Temperature 30°C
Umidità 79%
Pressione 1010 hPa
Visibilità: 24.1 km
Nubi sparse ad un'altezza di 1200 ft, Cumulo congesto.
Nuvoloso ad un'altezza di 12000 ft
Nuvoloso ad un'altezza di 28000 ft

METAR: PTKK 180453Z VRB05KT 15SM SCT012TCU BKN120 BKN280 30/26 A2982 RMK TCU N AND SW SLP101 T03000255

Ora: 15:44 (05:44 UTC)

Previsione

Il bollettino è stato emesso 6 ore e 5 minuti fa, alle 23:39 UTC
Previsione valida dal 18 alle 00 UTC al 18 alle 24 UTC
Vento 5 kt da direzioni variabili
Visibilità: 10 km
Poco nuvoloso ad un'altezza di 1500 ft
Nubi sparse ad un'altezza di 4000 ft
Nuvoloso ad un'altezza di 12000 ft
rovesci nelle vicinanze

TAF: PTKK 172339Z 1800/1824 VRB05KT P6SM VCSH FEW015 SCT040 BKN120

Osservazioni e previsioni meteorologiche di più di 4000 aeroporti (messaggi METAR e TAF).

Le stazioni disponibili sono rappresentate dai dischi gialli e rossi sulla carta.

Puntare il mouse per vedere il nome della stazione.

Clicca sopra per visualizzare le osservazioni e previsioni meteorologiche.

Per cambiare la mappa : fare clic sui pulsanti verdi con una croce nera per ingrandire, il pulsante verde con un trattino per diminuire, o sulla freccia verde per le mappe adiacenti.


METAR-TAF: